Dieppe, Canada
Current Conditions -  °F | °C
As of 8:00 AM on Wednesday 28 Jan 2015 (Local Time) from CYQM Reporting Station
Freezing Drizzle Freezing Drizzle  
Wind Chill:   Ceiling: 600
Heat Index: 21°   Visibility: 2mi
Dew Point: 19°   Wind: 23mph
Humidity: 93%   Direction: 10°N
Pressure: 29.62"   Gusts: NA
Location:  46.1°N, 64.75°W
Report Text: CYQM 281200Z 01020KT 2SM -FZDZ BR OVC006 M06/M07 A2962 RMK SF8 WND ESTD SLP034
Loading
Personal Weather Stations






























Interactive Weather Map New forecast layout! Learn more

10-Day Weather Forecast

Advertisements
Track Severe Weather on mobile